createdAt,value
2022-10-10T00:00:47.842Z,99.90
2022-10-10T00:03:14.617Z,99.90
2022-10-10T00:05:41.370Z,99.90
2022-10-10T00:08:07.981Z,99.90
2022-10-10T00:10:34.594Z,99.90
2022-10-10T00:13:01.417Z,99.90
2022-10-10T00:15:28.394Z,99.90
2022-10-10T00:17:55.122Z,99.90
2022-10-10T00:20:22.122Z,99.90
2022-10-10T00:22:49.233Z,99.90
2022-10-10T00:25:15.929Z,99.90
2022-10-10T00:27:42.517Z,99.90
2022-10-10T00:30:09.712Z,99.90
2022-10-10T00:32:36.691Z,99.90
2022-10-10T00:35:03.823Z,99.90
2022-10-10T00:37:30.407Z,99.90
2022-10-10T00:39:56.989Z,99.90
2022-10-10T00:42:23.546Z,99.90
2022-10-10T00:45:08.946Z,99.90
2022-10-10T00:47:35.503Z,99.90
2022-10-10T00:50:02.069Z,99.90
2022-10-10T00:52:28.658Z,99.90
2022-10-10T00:54:55.360Z,99.90
2022-10-10T00:57:21.918Z,99.90
2022-10-10T00:59:48.885Z,99.90
2022-10-10T01:02:15.459Z,99.90
2022-10-10T01:04:45.658Z,99.90
2022-10-10T01:07:14.735Z,99.90
2022-10-10T01:09:42.281Z,99.90
2022-10-10T01:12:26.821Z,99.90
2022-10-10T01:14:56.179Z,99.90
2022-10-10T01:17:28.843Z,99.90
2022-10-10T01:20:10.126Z,99.90
2022-10-10T01:22:36.679Z,99.90
2022-10-10T01:25:13.563Z,99.90
2022-10-10T01:27:46.166Z,99.90
2022-10-10T01:30:14.650Z,99.90
2022-10-10T01:33:00.894Z,99.90
2022-10-10T01:35:27.491Z,99.90
2022-10-10T01:38:06.299Z,99.90
2022-10-10T01:40:51.680Z,99.90
2022-10-10T01:43:18.282Z,99.90
2022-10-10T01:45:49.350Z,99.90
2022-10-10T01:48:17.300Z,99.90
2022-10-10T01:50:49.751Z,99.90
2022-10-10T01:53:48.875Z,99.90
2022-10-10T01:56:15.642Z,99.90
2022-10-10T01:59:08.576Z,99.90
2022-10-10T02:01:40.386Z,99.90
2022-10-10T02:04:06.927Z,99.90
2022-10-10T02:06:42.450Z,99.90
2022-10-10T02:09:11.437Z,99.90
2022-10-10T02:11:39.222Z,99.90
2022-10-10T02:14:12.015Z,99.90
2022-10-10T02:16:39.831Z,99.90
2022-10-10T02:19:10.689Z,99.90
2022-10-10T02:21:37.627Z,99.90
2022-10-10T02:24:05.797Z,99.90
2022-10-10T02:26:33.457Z,99.90
2022-10-10T02:29:03.943Z,99.90
2022-10-10T02:31:41.815Z,99.90
2022-10-10T02:34:18.898Z,99.90
2022-10-10T02:36:49.470Z,99.90
2022-10-10T02:39:16.692Z,99.90
2022-10-10T02:41:45.626Z,99.90
2022-10-10T02:44:13.402Z,99.90
2022-10-10T02:46:40.352Z,99.90
2022-10-10T02:49:10.587Z,99.90
2022-10-10T02:51:38.273Z,99.90
2022-10-10T02:54:05.192Z,99.90
2022-10-10T02:56:31.763Z,99.90
2022-10-10T02:58:58.340Z,99.90
2022-10-10T03:01:24.947Z,99.90
2022-10-10T03:03:51.522Z,99.90
2022-10-10T03:06:18.114Z,99.90
2022-10-10T03:08:44.652Z,99.90
2022-10-10T03:11:11.414Z,99.90
2022-10-10T03:13:37.959Z,99.90
2022-10-10T03:16:06.625Z,99.90
2022-10-10T03:18:33.188Z,99.90
2022-10-10T03:20:59.746Z,99.90
2022-10-10T03:23:26.405Z,99.90
2022-10-10T03:25:53.015Z,99.90
2022-10-10T03:28:20.066Z,99.90
2022-10-10T03:30:46.788Z,99.90
2022-10-10T03:33:13.658Z,99.90
2022-10-10T03:35:40.311Z,99.90
2022-10-10T03:38:06.936Z,99.90
2022-10-10T03:40:33.722Z,99.90
2022-10-10T03:43:00.268Z,99.90
2022-10-10T03:45:26.840Z,99.90
2022-10-10T03:47:53.383Z,99.90
2022-10-10T03:50:20.211Z,99.90
2022-10-10T03:52:46.787Z,99.90
2022-10-10T03:55:13.433Z,99.90
2022-10-10T03:57:40.135Z,99.90
2022-10-10T04:00:07.036Z,99.90
2022-10-10T04:02:33.597Z,99.90
2022-10-10T04:05:00.194Z,99.90
2022-10-10T04:07:26.925Z,99.90
2022-10-10T04:09:53.998Z,99.90
2022-10-10T04:12:20.533Z,99.90
2022-10-10T04:14:47.230Z,99.90
2022-10-10T04:17:13.816Z,99.90
2022-10-10T04:19:40.425Z,99.90
2022-10-10T04:22:10.990Z,99.90
2022-10-10T04:24:37.925Z,99.90
2022-10-10T04:27:04.490Z,99.90
2022-10-10T04:29:31.159Z,99.90
2022-10-10T04:31:57.749Z,99.90
2022-10-10T04:34:24.330Z,99.90
2022-10-10T04:36:50.885Z,99.90
2022-10-10T04:39:17.465Z,99.90
2022-10-10T04:41:44.094Z,99.90
2022-10-10T04:44:10.633Z,99.90
2022-10-10T04:46:37.237Z,99.90
2022-10-10T04:49:03.788Z,99.90
2022-10-10T04:51:30.347Z,99.90
2022-10-10T04:53:56.898Z,99.90
2022-10-10T04:56:24.851Z,99.90
2022-10-10T04:58:51.398Z,99.90
2022-10-10T05:01:17.981Z,99.90
2022-10-10T05:03:44.546Z,99.90
2022-10-10T05:06:11.101Z,99.90
2022-10-10T05:08:37.919Z,99.90
2022-10-10T05:11:04.542Z,99.90
2022-10-10T05:13:31.101Z,99.90
2022-10-10T05:15:57.707Z,99.90
2022-10-10T05:18:24.322Z,99.90
2022-10-10T05:20:50.953Z,99.90
2022-10-10T05:23:17.545Z,99.90
2022-10-10T05:25:53.206Z,99.90
2022-10-10T05:28:19.838Z,99.90
2022-10-10T05:30:46.511Z,99.90
2022-10-10T05:33:13.064Z,99.90
2022-10-10T05:35:39.771Z,99.90
2022-10-10T05:38:06.401Z,99.90
2022-10-10T05:40:33.039Z,99.90
2022-10-10T05:42:59.623Z,99.90
2022-10-10T05:45:26.219Z,99.90
2022-10-10T05:47:52.782Z,99.90
2022-10-10T05:50:28.613Z,99.90
2022-10-10T05:52:55.432Z,99.90
2022-10-10T05:55:22.040Z,99.90
2022-10-10T05:57:48.849Z,99.90
2022-10-10T06:00:15.471Z,99.90
2022-10-10T06:02:42.033Z,99.90
2022-10-10T06:05:08.810Z,99.90
2022-10-10T06:07:52.304Z,99.90
2022-10-10T06:10:22.386Z,99.90
2022-10-10T06:12:49.381Z,99.90
2022-10-10T06:15:16.273Z,99.90
2022-10-10T06:17:42.857Z,99.90
2022-10-10T06:20:09.828Z,99.90
2022-10-10T06:22:36.709Z,99.90
2022-10-10T06:25:03.367Z,99.90
2022-10-10T06:27:29.930Z,99.90
2022-10-10T06:29:56.495Z,99.90
2022-10-10T06:32:23.058Z,99.90
2022-10-10T06:34:49.754Z,99.90
2022-10-10T06:37:16.458Z,99.90
2022-10-10T06:39:43.115Z,99.90
2022-10-10T06:42:09.822Z,99.90
2022-10-10T06:44:36.361Z,99.90
2022-10-10T06:47:02.951Z,99.90
2022-10-10T06:49:29.713Z,99.90
2022-10-10T06:51:56.311Z,99.90
2022-10-10T06:54:22.973Z,99.90
2022-10-10T06:56:49.645Z,99.90
2022-10-10T06:59:16.290Z,99.90
2022-10-10T07:01:43.026Z,99.90
2022-10-10T07:04:10.131Z,99.90
2022-10-10T07:06:37.112Z,99.90
2022-10-10T07:09:03.705Z,99.90
2022-10-10T07:11:30.270Z,99.90
2022-10-10T07:13:56.962Z,99.90
2022-10-10T07:16:23.669Z,99.90
2022-10-10T07:18:50.409Z,99.90
2022-10-10T07:21:16.994Z,99.90
2022-10-10T07:23:43.688Z,99.90
2022-10-10T07:26:11.780Z,99.90
2022-10-10T07:28:39.060Z,99.90
2022-10-10T07:31:06.897Z,99.90
2022-10-10T07:33:34.476Z,99.90
2022-10-10T07:36:01.089Z,99.90
2022-10-10T07:38:27.754Z,99.90
2022-10-10T07:40:54.367Z,99.90
2022-10-10T07:43:20.941Z,99.90
2022-10-10T07:45:47.508Z,99.90
2022-10-10T07:48:14.343Z,99.90
2022-10-10T07:50:42.386Z,99.90
2022-10-10T07:53:09.506Z,99.90
2022-10-10T07:55:38.697Z,99.90
2022-10-10T07:58:05.401Z,99.90
2022-10-10T08:00:33.267Z,99.90
2022-10-10T08:02:59.856Z,99.90
2022-10-10T08:05:26.427Z,99.90
2022-10-10T08:07:53.614Z,99.90
2022-10-10T08:10:20.655Z,99.90
2022-10-10T08:12:47.216Z,99.90
2022-10-10T08:15:13.989Z,99.90
2022-10-10T08:17:40.595Z,99.90
2022-10-10T08:20:07.482Z,99.90
2022-10-10T08:22:34.126Z,99.90
2022-10-10T08:25:00.703Z,99.90
2022-10-10T08:27:27.684Z,99.90
2022-10-10T08:29:54.229Z,99.90
2022-10-10T08:32:20.799Z,99.90
2022-10-10T08:34:47.389Z,99.90
2022-10-10T08:37:13.945Z,99.90
2022-10-10T08:39:40.491Z,99.90
2022-10-10T08:42:07.264Z,99.90
2022-10-10T08:44:39.606Z,99.90
2022-10-10T08:47:12.006Z,99.90
2022-10-10T08:49:47.537Z,99.90
2022-10-10T08:52:14.077Z,99.30
2022-10-10T08:54:41.334Z,99.10
2022-10-10T08:57:14.230Z,98.70
2022-10-10T08:59:42.048Z,98.10
2022-10-10T09:02:43.666Z,98.00
2022-10-10T09:05:18.038Z,98.00
2022-10-10T09:08:03.510Z,98.00
2022-10-10T09:10:30.038Z,97.70
2022-10-10T09:13:01.410Z,97.80
2022-10-10T09:15:34.068Z,98.00
2022-10-10T09:18:06.607Z,97.50
2022-10-10T09:20:51.952Z,97.00
2022-10-10T09:23:25.095Z,97.00
2022-10-10T09:26:00.081Z,96.90
2022-10-10T09:28:35.956Z,97.50
2022-10-10T09:31:03.010Z,96.10
2022-10-10T09:33:33.146Z,95.50
2022-10-10T09:36:01.182Z,95.00
2022-10-10T09:38:27.876Z,94.40
2022-10-10T09:40:58.335Z,93.40
2022-10-10T09:43:29.243Z,93.70
2022-10-10T09:45:59.052Z,93.80
2022-10-10T09:48:32.832Z,94.20
2022-10-10T09:51:00.355Z,94.10
2022-10-10T09:53:27.211Z,93.30
2022-10-10T09:55:54.074Z,93.10
2022-10-10T09:58:43.692Z,92.20
2022-10-10T10:01:12.050Z,91.60
2022-10-10T10:03:38.711Z,91.60
2022-10-10T10:06:05.396Z,91.30
2022-10-10T10:08:34.085Z,92.20
2022-10-10T10:11:02.120Z,92.30
2022-10-10T10:13:33.845Z,92.50
2022-10-10T10:16:03.934Z,91.70
2022-10-10T10:18:30.894Z,90.50
2022-10-10T10:21:09.750Z,90.20
2022-10-10T10:23:56.612Z,87.60
2022-10-10T10:26:23.227Z,85.60
2022-10-10T10:28:50.608Z,82.50
2022-10-10T10:31:20.070Z,80.80
2022-10-10T10:33:55.959Z,82.50
2022-10-10T10:36:31.067Z,81.90
2022-10-10T10:39:12.164Z,83.30
2022-10-10T10:41:45.060Z,84.70
2022-10-10T10:44:16.558Z,86.50
2022-10-10T10:46:55.041Z,86.50
2022-10-10T10:49:25.625Z,87.00
2022-10-10T10:52:11.407Z,87.50
2022-10-10T10:54:41.202Z,87.40
2022-10-10T11:00:22.181Z,87.40
2022-10-10T11:03:09.669Z,87.40
2022-10-10T11:05:48.851Z,86.70
2022-10-10T11:08:38.915Z,85.50
2022-10-10T11:11:05.485Z,83.60
2022-10-10T11:13:54.258Z,82.60
2022-10-10T11:16:46.923Z,80.20
2022-10-10T11:19:14.417Z,79.30
2022-10-10T11:21:43.478Z,76.30
2022-10-10T11:24:12.287Z,71.50
2022-10-10T11:26:47.698Z,69.00
2022-10-10T11:29:22.929Z,65.40
2022-10-10T11:31:56.690Z,64.70
2022-10-10T11:34:38.340Z,64.30
2022-10-10T11:37:08.772Z,64.30
2022-10-10T11:39:50.555Z,62.50
2022-10-10T11:42:22.700Z,64.00
2022-10-10T11:45:04.226Z,63.20
2022-10-10T11:47:49.352Z,65.40
2022-10-10T11:50:21.495Z,66.00
2022-10-10T11:52:54.239Z,69.60
2022-10-10T11:55:31.328Z,70.40
2022-10-10T11:58:00.645Z,74.30
2022-10-10T12:00:28.592Z,76.10
2022-10-10T12:02:56.547Z,77.70
2022-10-10T12:05:27.359Z,80.50
2022-10-10T12:07:53.897Z,82.00
2022-10-10T12:10:23.487Z,82.70
2022-10-10T12:12:52.605Z,83.70
2022-10-10T12:15:41.920Z,84.10
2022-10-10T12:18:22.577Z,83.00
2022-10-10T12:20:49.133Z,83.60
2022-10-10T12:23:16.617Z,83.90
2022-10-10T12:25:45.591Z,85.00
2022-10-10T12:28:15.407Z,85.90
2022-10-10T12:30:58.506Z,86.90
2022-10-10T12:33:28.286Z,86.50
2022-10-10T12:35:54.935Z,87.50
2022-10-10T12:38:23.456Z,87.30
2022-10-10T12:41:05.668Z,87.90
2022-10-10T12:43:38.329Z,87.90
2022-10-10T12:46:14.514Z,87.10
2022-10-10T12:48:41.275Z,87.90
2022-10-10T12:51:16.949Z,88.40
2022-10-10T12:53:47.574Z,87.20
2022-10-10T12:56:14.228Z,87.40
2022-10-10T12:58:41.017Z,87.50
2022-10-10T13:01:18.592Z,87.80
2022-10-10T13:03:46.580Z,88.00
2022-10-10T13:06:30.407Z,88.40
2022-10-10T13:08:57.919Z,88.80
2022-10-10T13:11:24.478Z,88.80
2022-10-10T13:13:52.302Z,89.90
2022-10-10T13:16:20.345Z,89.70
2022-10-10T13:18:50.051Z,90.00
2022-10-10T13:21:21.469Z,90.10
2022-10-10T13:26:43.276Z,90.00
2022-10-10T13:29:28.889Z,89.90
2022-10-10T13:31:58.695Z,90.50
2022-10-10T13:34:27.443Z,90.50
2022-10-10T13:36:55.769Z,90.70
2022-10-10T13:39:22.468Z,90.50
2022-10-10T13:41:49.295Z,90.60
2022-10-10T13:44:23.411Z,90.70
2022-10-10T13:46:50.390Z,90.90
2022-10-10T13:49:20.154Z,90.60
2022-10-10T13:51:47.889Z,90.60
2022-10-10T13:54:37.873Z,90.60
2022-10-10T13:57:06.181Z,91.10
2022-10-10T13:59:34.090Z,91.40
2022-10-10T14:02:02.100Z,91.20
2022-10-10T14:04:32.785Z,91.40
2022-10-10T14:06:59.511Z,91.40
2022-10-10T14:09:32.020Z,91.60
2022-10-10T14:12:00.103Z,91.90
2022-10-10T14:14:32.471Z,91.70
2022-10-10T14:16:59.001Z,91.90
2022-10-10T14:19:25.770Z,92.40
2022-10-10T14:21:52.341Z,92.00
2022-10-10T14:24:18.885Z,92.20
2022-10-10T14:26:45.462Z,92.30
2022-10-10T14:29:15.955Z,92.20
2022-10-10T14:31:43.695Z,92.10
2022-10-10T14:34:12.823Z,92.40
2022-10-10T14:36:41.990Z,92.80
2022-10-10T14:39:10.130Z,92.80
2022-10-10T14:41:36.670Z,93.40
2022-10-10T14:44:03.245Z,93.00
2022-10-10T14:46:29.811Z,92.70
2022-10-10T14:48:56.408Z,92.40
2022-10-10T14:51:33.255Z,92.70
2022-10-10T14:54:11.974Z,92.70
2022-10-10T14:57:09.109Z,93.00
2022-10-10T14:59:46.389Z,93.10
2022-10-10T15:02:14.775Z,93.20
2022-10-10T15:04:41.477Z,93.30
2022-10-10T15:07:13.543Z,93.50
2022-10-10T15:09:51.595Z,93.90
2022-10-10T15:12:23.558Z,93.90
2022-10-10T15:14:50.290Z,94.20
2022-10-10T15:17:16.965Z,94.50
2022-10-10T15:19:44.941Z,94.40
2022-10-10T15:22:11.543Z,94.90
2022-10-10T15:24:38.097Z,95.30
2022-10-10T15:27:04.820Z,95.80
2022-10-10T15:29:31.718Z,96.30
2022-10-10T15:31:58.725Z,96.90
2022-10-10T15:34:25.345Z,96.80
2022-10-10T15:36:52.100Z,97.30
2022-10-10T15:39:18.649Z,97.40
2022-10-10T15:41:45.402Z,97.50
2022-10-10T15:44:16.221Z,97.90
2022-10-10T15:46:43.683Z,98.20
2022-10-10T15:49:10.410Z,98.60
2022-10-10T15:51:36.989Z,99.10
2022-10-10T15:54:03.706Z,98.70
2022-10-10T15:56:30.710Z,98.90
2022-10-10T15:58:58.029Z,98.90
2022-10-10T16:01:25.604Z,99.00
2022-10-10T16:03:52.461Z,99.30
2022-10-10T16:06:19.759Z,99.80
2022-10-10T16:08:55.715Z,99.90
2022-10-10T16:11:30.823Z,99.90
2022-10-10T16:13:57.569Z,99.90
2022-10-10T16:16:24.646Z,99.90
2022-10-10T16:18:51.285Z,99.90
2022-10-10T16:21:19.499Z,99.90
2022-10-10T16:23:47.082Z,99.90
2022-10-10T16:26:15.705Z,99.90
2022-10-10T16:28:42.650Z,99.90
2022-10-10T16:31:10.573Z,99.90
2022-10-10T16:33:37.976Z,99.90
2022-10-10T16:36:08.670Z,99.90
2022-10-10T16:38:35.463Z,99.90
2022-10-10T16:41:06.068Z,99.90
2022-10-10T16:43:33.087Z,99.90
2022-10-10T16:46:03.297Z,99.90
2022-10-10T16:48:33.659Z,99.90
2022-10-10T16:51:07.224Z,99.90
2022-10-10T16:53:34.256Z,99.90
2022-10-10T16:56:01.995Z,99.90
2022-10-10T16:58:29.473Z,99.90
2022-10-10T17:00:56.139Z,99.90
2022-10-10T17:03:24.285Z,99.90
2022-10-10T17:06:00.440Z,99.90
2022-10-10T17:08:26.993Z,99.90
2022-10-10T17:10:53.763Z,99.90
2022-10-10T17:13:20.307Z,99.90
2022-10-10T17:15:47.220Z,99.90
2022-10-10T17:18:13.932Z,99.90
2022-10-10T17:20:41.112Z,99.90
2022-10-10T17:23:07.732Z,99.90
2022-10-10T17:25:34.431Z,99.90
2022-10-10T17:28:01.014Z,99.90
2022-10-10T17:30:27.622Z,99.90
2022-10-10T17:32:54.197Z,99.90
2022-10-10T17:35:20.818Z,99.90
2022-10-10T17:37:47.355Z,99.90
2022-10-10T17:40:13.889Z,99.90
2022-10-10T17:42:40.467Z,99.90
2022-10-10T17:45:07.369Z,99.90
2022-10-10T17:47:34.132Z,99.90
2022-10-10T17:50:00.869Z,99.90
2022-10-10T17:52:27.521Z,99.90
2022-10-10T17:54:54.103Z,99.90
2022-10-10T17:57:20.695Z,99.90
2022-10-10T17:59:47.419Z,99.90
2022-10-10T18:02:18.116Z,99.90
2022-10-10T18:04:44.944Z,99.90
2022-10-10T18:07:12.708Z,99.90
2022-10-10T18:09:39.261Z,99.90
2022-10-10T18:12:07.606Z,99.90
2022-10-10T18:14:34.310Z,99.90
2022-10-10T18:17:00.960Z,99.90
2022-10-10T18:19:27.500Z,99.90
2022-10-10T18:21:54.049Z,99.90
2022-10-10T18:24:20.654Z,99.90
2022-10-10T18:26:47.228Z,99.90
2022-10-10T18:29:14.513Z,99.90
2022-10-10T18:31:41.155Z,99.90
2022-10-10T18:34:07.714Z,99.90
2022-10-10T18:36:35.714Z,99.90
2022-10-10T18:39:04.018Z,99.90
2022-10-10T18:41:34.359Z,99.90
2022-10-10T18:44:05.818Z,99.90
2022-10-10T18:46:32.888Z,99.90
2022-10-10T18:49:00.401Z,99.90
2022-10-10T18:51:29.487Z,99.90
2022-10-10T18:53:58.486Z,99.90
2022-10-10T18:56:25.124Z,99.90
2022-10-10T18:58:56.921Z,99.90
2022-10-10T19:01:25.372Z,99.90
2022-10-10T19:03:52.567Z,99.90
2022-10-10T19:06:19.157Z,99.90
2022-10-10T19:08:45.738Z,99.90
2022-10-10T19:11:19.213Z,99.90
2022-10-10T19:13:45.895Z,99.90
2022-10-10T19:16:12.481Z,99.90
2022-10-10T19:18:39.153Z,99.90
2022-10-10T19:21:06.274Z,99.90
2022-10-10T19:23:33.355Z,99.90
2022-10-10T19:26:04.391Z,99.90
2022-10-10T19:28:31.781Z,99.90
2022-10-10T19:31:02.654Z,99.90
2022-10-10T19:33:29.457Z,99.90
2022-10-10T19:35:55.997Z,99.90
2022-10-10T19:38:22.555Z,99.90
2022-10-10T19:40:49.513Z,99.90
2022-10-10T19:43:16.769Z,99.90
2022-10-10T19:45:44.777Z,99.90
2022-10-10T19:48:11.344Z,99.90
2022-10-10T19:50:38.828Z,99.90
2022-10-10T19:53:05.893Z,99.90
2022-10-10T19:55:32.446Z,99.90
2022-10-10T19:57:58.999Z,99.90
2022-10-10T20:00:25.624Z,99.90
2022-10-10T20:02:52.225Z,99.90
2022-10-10T20:05:18.891Z,99.90
2022-10-10T20:07:45.532Z,99.90
2022-10-10T20:10:12.774Z,99.90
2022-10-10T20:12:39.340Z,99.90
2022-10-10T20:15:06.122Z,99.90
2022-10-10T20:17:32.720Z,99.90
2022-10-10T20:19:59.787Z,99.90
2022-10-10T20:22:26.340Z,99.90
2022-10-10T20:24:53.028Z,99.90
2022-10-10T20:27:19.582Z,99.90
2022-10-10T20:29:46.153Z,99.90
2022-10-10T20:32:12.874Z,99.90
2022-10-10T20:34:39.521Z,99.90
2022-10-10T20:37:06.197Z,99.90
2022-10-10T20:39:32.773Z,99.90
2022-10-10T20:41:59.522Z,99.90
2022-10-10T20:44:26.233Z,99.90
2022-10-10T20:46:52.836Z,99.90
2022-10-10T20:49:20.800Z,99.90
2022-10-10T20:51:49.519Z,99.90
2022-10-10T20:54:17.499Z,99.90
2022-10-10T20:56:48.494Z,99.90
2022-10-10T20:59:15.581Z,99.90
2022-10-10T21:01:42.332Z,99.90
2022-10-10T21:04:09.687Z,99.90
2022-10-10T21:06:36.667Z,99.90
2022-10-10T21:09:05.345Z,99.90
2022-10-10T21:11:32.458Z,99.90
2022-10-10T21:13:59.820Z,99.90
2022-10-10T21:16:28.108Z,99.90
2022-10-10T21:18:57.818Z,99.90
2022-10-10T21:21:25.482Z,99.90
2022-10-10T21:23:56.005Z,99.90
2022-10-10T21:26:24.095Z,99.90
2022-10-10T21:28:50.891Z,99.90
2022-10-10T21:31:22.356Z,99.90
2022-10-10T21:33:49.030Z,99.90
2022-10-10T21:36:16.594Z,99.90
2022-10-10T21:38:43.255Z,99.90
2022-10-10T21:41:11.880Z,99.90
2022-10-10T21:43:39.252Z,99.90
2022-10-10T21:46:10.547Z,99.90
2022-10-10T21:48:37.325Z,99.90
2022-10-10T21:51:04.069Z,99.90
2022-10-10T21:53:31.306Z,99.90
2022-10-10T21:55:58.269Z,99.90
2022-10-10T21:58:24.868Z,99.90
2022-10-10T22:00:51.466Z,99.90
2022-10-10T22:03:18.105Z,99.90
2022-10-10T22:05:44.808Z,99.90
2022-10-10T22:08:11.601Z,99.90
2022-10-10T22:10:40.139Z,99.90
2022-10-10T22:13:06.745Z,99.90
2022-10-10T22:15:33.587Z,99.90
2022-10-10T22:18:00.178Z,99.90
2022-10-10T22:20:26.750Z,99.90
2022-10-10T22:22:53.313Z,99.90
2022-10-10T22:25:19.903Z,99.90
2022-10-10T22:27:46.491Z,99.90
2022-10-10T22:30:13.560Z,99.90
2022-10-10T22:32:40.192Z,99.90
2022-10-10T22:35:06.980Z,99.90
2022-10-10T22:37:33.565Z,99.90
2022-10-10T22:40:00.130Z,99.90
2022-10-10T22:42:26.689Z,99.90
2022-10-10T22:44:53.286Z,99.90
2022-10-10T22:47:19.988Z,99.90
2022-10-10T22:49:46.552Z,99.90
2022-10-10T22:52:13.125Z,99.90
2022-10-10T22:54:39.669Z,99.90
2022-10-10T22:57:06.228Z,99.90
2022-10-10T22:59:32.791Z,99.90
2022-10-10T23:01:59.523Z,99.90
2022-10-10T23:04:26.145Z,99.90
2022-10-10T23:06:52.707Z,99.90
2022-10-10T23:09:19.400Z,99.90
2022-10-10T23:11:45.964Z,99.90
2022-10-10T23:14:12.618Z,99.90
2022-10-10T23:16:40.859Z,99.90
2022-10-10T23:19:07.677Z,99.90
2022-10-10T23:21:34.285Z,99.90
2022-10-10T23:24:00.847Z,99.90
2022-10-10T23:26:27.472Z,99.90
2022-10-10T23:28:54.099Z,99.90
2022-10-10T23:31:20.862Z,99.90
2022-10-10T23:33:47.607Z,99.90
2022-10-10T23:36:14.710Z,99.90
2022-10-10T23:38:41.943Z,99.90
2022-10-10T23:41:09.503Z,99.90
2022-10-10T23:43:36.513Z,99.90
2022-10-10T23:46:03.660Z,99.90
2022-10-10T23:48:30.684Z,99.90
2022-10-10T23:50:57.237Z,99.90
2022-10-10T23:53:23.987Z,99.90
2022-10-10T23:55:50.547Z,99.90
2022-10-10T23:58:17.110Z,99.90
